Date,TemperatureHighF,TemperatureAvgF,TemperatureLowF,DewpointHighF,DewpointAvgF,DewpointLowF,HumidityHigh,HumidityAvg,HumidityLow,PressureMaxIn,PressureMinIn,WindSpeedMaxMPH,WindSpeedAvgMPH,GustSpeedMaxMPH,PrecipitationSumIn
2014-1-1,84.0,74.0,64.4,70.3,67.7,64.1,99,82,59,28.42,28.26,4,1,0,0.00
2014-1-2,80.4,74.8,68.5,73.5,70.6,68.2,99,87,74,28.32,28.17,7,2,0,3.34
2014-1-3,78.3,69.7,63.9,66.5,61.3,55.2,99,76,52,28.36,28.20,3,1,0,0.04
2014-1-4,76.5,69.1,62.4,61.0,56.6,53.4,91,66,46,28.45,28.30,5,2,0,0.00
2014-1-5,77.0,67.2,61.5,60.8,58.3,54.5,93,74,52,28.47,28.32,6,1,0,0.00
2014-1-6,75.9,68.1,63.5,59.5,57.3,55.3,86,69,53,28.51,28.39,5,1,0,0.00
2014-1-7,77.9,71.3,66.7,62.2,58.7,56.5,72,65,56,28.56,28.43,6,2,0,0.00
2014-1-8,76.3,65.4,67.6,64.5,47.7,-99.9,75,64,63,28.50,28.39,4,-82,0,0.00
2014-1-9,75.0,72.4,72.0,-31.9,-33.8,-99.9,1,1,1,28.47,28.31,0,-22,0,0.00
2014-1-10,75.6,74.4,73.9,-31.5,-32.2,-32.5,1,1,1,28.43,28.27,0,0,0,0.00
2014-1-11,75.9,74.9,74.5,-31.3,-31.8,-32.1,1,1,1,28.41,28.32,0,0,0,0.00
2014-1-12,76.1,74.9,73.2,-31.2,-31.9,-32.9,1,1,1,28.43,28.32,0,0,0,0.00
2014-1-13,76.8,75.7,75.0,-30.7,-31.4,-31.8,1,1,1,28.42,28.27,0,0,0,0.00
2014-1-14,78.6,76.8,75.2,-29.7,-30.8,-31.7,1,1,1,28.37,28.26,0,0,0,0.00
2014-1-15,76.1,75.8,75.2,-31.2,-31.4,-31.7,1,1,1,28.35,28.23,0,0,0,0.00
2014-1-16,76.5,76.2,75.6,-30.9,-31.1,-31.5,1,1,1,28.43,28.28,0,0,0,0.00
2014-1-17,76.5,75.8,74.8,-30.9,-31.3,-31.9,1,1,1,28.47,28.37,0,0,0,0.00
2014-2-2,75.4,75.1,74.5,-31.6,-31.7,-32.1,1,1,1,28.44,28.29,0,0,0,0.00
2014-2-3,74.7,74.6,74.5,-32.0,-32.1,-32.1,1,1,1,28.43,28.41,0,0,0,0.00
2014-2-23,84.7,73.6,68.0,70.8,64.8,-99.9,97,78,60,28.45,28.34,6,-15,0,0.00
2014-2-24,83.5,72.1,62.8,65.1,62.1,60.0,95,72,51,28.45,28.28,4,1,0,0.00
2014-2-25,78.3,71.0,62.8,65.1,61.6,58.8,99,73,57,28.41,28.26,5,1,0,0.00
2014-2-26,80.4,71.0,63.9,61.3,57.5,53.2,82,63,47,28.46,28.33,6,2,0,0.00
2014-2-27,82.6,70.2,63.7,63.7,58.3,51.9,88,67,46,28.46,28.31,5,1,0,0.00
2014-2-28,81.5,74.2,68.5,70.0,67.7,64.7,99,81,61,28.38,28.25,3,1,0,0.13
2014-3-1,77.0,72.1,67.1,70.7,68.5,66.8,99,89,74,28.39,28.26,3,1,0,2.53
2014-3-2,71.6,68.8,64.9,70.3,67.8,63.2,99,97,93,28.39,28.26,2,0,0,0.30
2014-3-3,75.7,69.3,61.7,65.3,59.1,53.8,98,72,48,28.38,28.24,5,1,0,0.00
2014-3-4,80.6,70.2,59.2,60.4,58.7,56.2,92,69,44,28.45,28.31,4,1,0,0.00
2014-3-5,82.0,70.6,61.5,63.5,61.3,58.5,92,75,46,28.46,28.31,4,0,0,0.00
2014-3-6,80.4,72.2,63.7,73.1,69.0,62.4,98,90,71,28.42,28.29,4,1,0,0.39
2014-3-7,82.9,72.6,66.0,72.9,68.8,65.7,99,89,68,28.44,28.29,3,1,0,1.16
2014-3-8,80.2,69.3,65.3,70.0,67.4,65.0,99,94,70,28.50,28.36,3,0,0,0.57
2014-3-9,83.1,73.4,66.9,72.3,69.1,66.6,99,87,68,28.49,28.34,3,1,0,0.14
2014-3-10,84.2,72.3,66.2,71.1,68.3,65.7,99,89,63,28.50,28.34,2,0,0,0.20
2014-3-11,82.8,73.6,65.5,67.6,64.1,61.9,99,74,53,28.47,28.31,5,1,0,0.00
2014-3-12,84.6,74.2,66.9,66.9,64.6,62.6,96,73,54,28.49,28.35,6,2,0,0.01
2014-3-13,81.5,74.4,68.9,67.4,65.3,63.3,89,74,57,28.50,28.38,6,1,0,0.00
2014-3-14,84.2,73.7,66.2,72.6,66.8,64.0,99,80,56,28.50,28.36,9,2,0,0.05
2014-3-15,79.3,70.9,63.5,66.5,62.7,56.8,94,76,61,28.53,28.40,10,3,0,0.04
2014-3-16,78.1,70.9,64.6,60.3,57.8,51.2,81,64,49,28.54,28.37,14,3,0,0.00
2014-3-17,77.5,70.0,64.6,63.3,59.8,56.6,86,71,57,28.48,28.33,10,3,0,0.00
2014-3-18,81.9,72.9,66.2,61.4,59.6,57.9,80,64,48,28.43,28.27,8,2,0,0.00
2014-3-19,84.6,74.6,65.3,63.5,60.9,58.9,87,64,45,28.41,28.26,6,2,0,0.00
2014-3-20,84.7,72.8,65.3,64.1,62.8,60.5,87,72,50,28.46,28.32,5,1,0,0.00
2014-3-21,82.2,74.7,69.6,65.4,62.4,60.9,76,66,54,28.48,28.34,10,4,0,0.00
2014-3-22,78.1,72.5,69.4,64.3,63.2,62.2,79,73,62,28.49,28.38,9,3,0,0.00
2014-3-23,88.2,77.9,69.1,68.4,64.5,61.1,78,64,49,28.53,28.43,5,2,0,0.00
2014-3-24,81.9,73.0,68.7,64.4,62.1,60.8,80,69,54,28.59,28.48,3,1,0,0.00
2014-3-25,91.2,76.9,66.6,70.9,66.5,63.3,99,73,46,28.57,28.41,4,1,0,0.06
2014-3-26,92.5,77.9,68.2,75.1,70.3,67.3,99,80,49,28.55,28.42,4,1,0,0.04
2014-3-27,81.7,70.6,66.9,74.0,68.4,66.6,99,93,70,28.54,28.40,2,1,0,0.03
2014-3-28,86.0,71.5,66.0,73.9,68.0,65.3,99,90,58,28.49,28.38,2,0,0,0.01
2014-3-29,85.5,74.6,67.3,71.7,65.7,60.8,98,75,58,28.44,28.32,2,1,0,0.08
2014-3-30,88.9,76.0,63.9,72.3,66.8,63.6,99,75,46,28.45,28.33,3,1,0,0.00
2014-3-31,84.2,76.2,68.0,72.0,68.4,66.0,99,78,60,28.49,28.33,4,1,0,0.16
2014-4-1,78.1,72.9,69.3,72.1,70.2,68.5,99,92,76,28.49,28.40,4,2,0,0.44
2014-4-2,87.8,74.6,69.8,77.0,68.7,66.1,95,83,55,28.53,28.42,6,2,0,0.07
2014-4-3,87.6,77.1,71.6,68.1,65.9,64.1,80,69,52,28.54,28.42,5,1,0,0.00
2014-4-4,89.4,77.9,67.6,70.5,65.5,62.1,88,67,51,28.50,28.34,5,2,0,0.00
2014-4-5,90.3,75.8,64.0,71.4,66.1,61.7,98,74,54,28.45,28.31,6,2,0,0.00
2014-4-6,89.8,72.0,62.1,69.4,64.2,60.3,96,79,48,28.50,28.34,4,1,0,0.04
2014-4-7,81.1,70.7,65.3,68.2,63.3,59.4,94,78,62,28.51,28.39,4,2,0,0.01
2014-4-8,84.4,73.6,64.9,63.2,58.6,54.7,77,60,44,28.52,28.37,7,2,0,0.00
2014-4-9,75.9,68.1,64.4,59.8,58.2,56.9,79,71,54,28.53,28.46,3,1,0,0.00
2014-4-10,81.3,68.6,64.2,65.0,63.1,61.3,94,84,55,28.52,28.36,2,1,0,0.00
2014-4-11,86.4,77.3,66.9,67.9,62.8,59.8,78,62,48,28.51,28.38,5,1,0,0.00
2014-4-12,81.0,68.6,64.0,73.2,66.5,63.7,99,94,72,28.51,28.45,2,0,0,0.34
2014-4-13,79.9,71.7,69.8,72.4,61.6,-99.9,90,75,70,28.56,28.44,5,-23,0,0.47
2014-4-14,85.6,74.8,68.9,67.3,62.8,59.5,76,67,51,28.59,28.46,4,2,0,0.00
2014-4-15,83.3,73.1,67.1,70.7,66.3,60.8,98,80,59,28.52,28.41,3,0,0,0.34
2014-4-16,96.6,79.5,67.5,70.9,67.0,64.1,96,68,43,28.52,28.40,4,0,0,0.03
2014-4-17,100.6,79.5,66.6,74.5,69.0,64.8,99,74,41,28.53,28.40,5,1,0,0.19
2014-4-18,96.1,74.7,66.2,78.7,66.0,-99.9,99,81,46,28.55,28.43,3,-25,0,0.47
2014-4-19,90.5,73.4,65.3,74.3,66.3,64.0,99,81,49,28.56,28.45,3,1,0,0.01
2014-4-20,81.5,74.7,68.2,72.0,68.4,66.7,99,82,66,28.59,28.46,6,1,0,0.20
2014-4-21,80.6,71.8,68.0,73.5,69.2,66.8,99,91,79,28.58,28.48,6,1,0,0.76
2014-4-22,90.3,75.5,68.4,71.4,66.5,63.1,96,75,49,28.54,28.38,5,2,0,0.03
2014-4-23,89.6,76.7,68.4,71.3,66.5,63.5,96,73,50,28.54,28.42,6,1,0,0.04
2014-4-24,83.3,73.3,67.5,70.7,67.7,65.7,97,83,61,28.58,28.45,4,1,0,0.13
2014-4-25,80.1,72.6,67.5,70.6,67.5,65.3,99,85,68,28.57,28.47,3,1,0,0.11
2014-4-26,86.4,73.4,68.0,70.8,68.5,66.1,99,86,60,28.55,28.42,2,1,0,0.28
2014-4-27,87.1,75.9,66.9,76.9,69.4,65.7,99,81,59,28.51,28.36,3,1,0,0.02
2014-4-28,92.5,78.3,63.9,73.3,67.6,63.1,99,72,50,28.47,28.33,4,1,0,0.00
2014-4-29,89.1,76.6,68.4,70.8,65.2,61.5,86,69,52,28.49,28.35,5,1,0,0.00
2014-4-30,98.2,78.9,66.6,71.1,65.0,61.4,90,66,40,28.49,28.38,5,1,0,0.00
2014-5-1,99.7,77.9,66.9,71.7,65.2,62.1,91,69,38,28.48,28.35,5,1,0,0.00
2014-5-2,82.4,73.8,67.8,74.3,69.3,65.7,99,86,72,28.48,28.38,2,1,0,0.19
2014-5-3,91.4,77.5,68.4,72.9,68.9,67.3,97,77,55,28.47,28.36,3,1,0,0.00
2014-5-4,95.9,81.3,67.8,73.7,69.1,66.2,99,70,40,28.48,28.36,3,1,0,0.00
2014-5-5,82.0,72.1,67.5,72.6,69.3,67.2,99,92,70,28.49,28.45,2,0,0,0.00
2014-5-9,81.7,76.9,72.0,72.7,71.1,69.2,99,84,66,28.47,28.42,2,1,0,0.00
2014-5-10,72.5,70.2,67.8,72.2,68.7,67.3,99,95,90,28.50,28.44,1,0,0,0.00
2014-5-11,91.9,75.5,69.3,74.7,70.9,69.0,99,87,56,28.51,28.38,2,0,0,0.22
2014-5-12,73.6,69.9,67.8,69.8,67.5,64.3,99,92,84,28.43,28.39,3,0,0,0.00
2014-5-13,86.7,76.2,71.4,68.6,65.2,63.4,77,69,55,28.39,28.32,2,0,0,0.00
2014-5-14,97.9,76.5,70.0,74.0,67.5,65.3,87,76,44,28.40,28.34,2,1,0,0.00
2014-5-15,95.0,70.3,66.4,76.3,67.2,65.6,99,90,55,28.43,28.34,2,0,0,0.00
2014-5-16,79.5,73.8,70.2,73.9,71.2,68.1,96,92,80,28.46,28.42,0,0,0,0.03
2014-5-18,73.8,68.0,66.9,70.4,67.2,66.5,99,98,81,28.47,28.34,0,0,0,0.00
2014-5-19,78.1,72.3,67.8,74.0,65.1,-99.9,99,84,76,28.39,28.31,0,-29,0,0.03
2014-5-20,80.8,74.9,70.2,71.5,69.9,68.0,95,85,70,28.45,28.35,0,0,0,0.00
2014-5-21,84.4,76.6,67.3,72.4,68.4,65.8,99,77,61,28.44,28.33,0,0,0,0.00
2014-5-22,86.0,78.0,69.6,74.6,70.7,67.5,96,79,67,28.43,28.33,0,0,0,0.02
2014-5-23,79.0,75.8,73.6,73.5,72.5,71.1,93,90,82,28.41,28.37,0,0,0,0.00
2014-5-29,84.6,71.4,71.8,69.5,53.4,-99.9,89,66,58,29.97,29.89,0,-88,0,0.03
2014-5-30,92.1,82.8,71.1,74.9,69.5,66.3,92,66,48,29.97,29.85,5,1,0,0.07
2014-5-31,93.4,83.9,70.0,72.7,70.3,66.8,98,66,49,29.97,29.86,3,1,0,0.05
2014-6-1,90.9,74.6,67.8,73.1,69.8,67.5,99,88,52,29.96,29.84,3,0,0,0.02
2014-6-2,89.1,79.3,68.2,78.5,72.1,67.7,99,80,62,29.97,29.83,5,0,0,0.30
2014-6-3,94.5,82.3,67.1,75.5,70.2,66.8,99,69,51,29.97,29.83,3,0,0,0.01
2014-6-4,88.5,80.2,70.0,76.2,68.6,65.3,94,69,53,29.98,29.88,4,1,0,0.00
2014-6-5,90.0,79.8,72.1,77.6,68.5,64.9,85,69,50,29.98,29.88,4,1,0,0.01
2014-6-6,87.8,77.2,67.5,77.3,70.9,66.1,99,82,58,30.00,29.89,3,0,0,0.36
2014-6-7,100.2,81.1,69.3,74.3,68.3,64.5,93,68,42,29.98,29.86,5,1,0,0.04
2014-6-8,92.5,76.4,67.1,73.9,69.2,66.8,99,81,48,29.98,29.86,3,0,0,0.01
2014-6-9,91.9,81.3,68.7,74.2,69.0,65.6,99,68,48,29.99,29.88,3,1,0,0.00
2014-6-10,93.7,81.3,70.3,75.1,70.1,65.6,95,70,51,30.01,29.89,3,1,0,0.00
2014-6-11,97.7,83.7,72.3,73.8,69.2,66.2,84,63,44,30.02,29.89,3,1,0,0.00
2014-6-12,100.8,82.7,73.9,71.2,67.8,66.0,79,62,39,30.00,29.87,3,1,0,0.00
2014-6-13,91.9,82.4,71.6,70.0,67.1,64.9,87,61,44,30.01,29.88,4,1,0,0.00
2014-6-14,100.8,81.1,72.7,71.7,66.6,63.7,83,64,36,29.97,29.88,4,1,0,0.02
2014-6-15,102.6,86.3,68.9,73.5,69.1,64.4,97,61,36,30.01,29.88,3,1,0,0.15
2014-6-16,93.6,78.5,68.5,72.2,69.0,65.4,99,77,43,29.97,29.87,2,0,0,0.04
2014-6-17,94.5,82.0,69.8,75.2,68.9,66.0,99,68,47,29.99,29.87,1,0,0,0.00
2014-6-18,99.0,81.6,67.5,77.0,70.3,64.8,99,72,41,30.02,29.92,1,0,0,0.14
2014-6-19,103.6,85.5,68.9,72.9,67.5,63.6,97,58,36,30.04,29.92,1,0,0,0.01
2014-6-20,92.1,82.0,69.1,71.3,67.8,64.7,99,64,46,30.01,29.88,2,0,0,0.00
2014-6-21,95.2,82.2,68.4,70.6,67.4,64.3,99,64,44,29.99,29.84,2,0,0,0.00
2014-6-22,96.1,81.3,69.8,71.8,69.2,66.5,92,69,44,29.95,29.87,0,0,0,0.00
2014-6-23,99.7,84.7,68.9,73.4,68.3,64.6,99,62,35,29.98,29.85,1,0,0,0.00
2014-6-24,104.5,86.9,70.5,75.7,71.8,69.5,97,65,38,30.05,29.91,2,0,0,0.03
2014-6-25,99.1,82.3,70.0,76.6,71.2,67.1,99,73,42,30.03,29.90,0,0,0,0.05
2014-6-26,93.4,79.6,68.9,73.1,70.3,67.9,99,76,52,29.99,29.87,2,0,0,0.11
2014-6-27,93.6,82.5,67.8,75.3,71.5,67.5,99,72,50,29.94,29.86,1,0,0,0.00
2014-6-28,94.1,83.0,70.2,77.2,73.3,69.9,99,74,55,29.98,29.90,1,0,0,0.02
2014-6-29,94.6,80.5,71.1,75.8,70.1,68.3,99,73,46,29.97,29.86,0,0,0,0.00
2014-6-30,95.5,84.9,70.3,73.6,69.8,67.1,91,63,45,29.93,29.83,3,0,0,0.00
2014-7-1,97.7,87.2,71.2,72.2,70.3,68.1,90,60,43,29.91,29.80,1,0,0,0.00
2014-7-2,97.7,83.8,71.8,76.8,71.9,67.9,92,70,46,29.96,29.85,0,0,0,0.03
2014-7-3,100.4,82.9,71.2,77.7,72.7,69.8,99,74,43,30.00,29.88,1,0,0,0.06
2014-7-4,93.4,82.6,72.1,71.9,68.7,65.8,94,65,47,30.02,29.90,2,0,0,0.00
2014-7-5,81.5,76.7,70.9,74.8,71.9,66.2,97,86,73,29.99,29.87,1,0,0,0.06
2014-7-6,94.6,79.6,69.6,74.6,69.5,67.6,99,74,44,29.96,29.85,3,0,0,0.00
2014-7-7,90.9,78.3,70.2,76.3,69.9,65.9,99,77,54,29.93,29.82,2,0,0,0.03
2014-7-8,92.5,78.7,70.0,75.2,70.6,66.3,99,79,53,29.95,29.86,1,0,0,0.17
2014-7-9,91.0,75.8,68.5,75.4,70.3,67.9,99,85,54,29.97,29.85,2,0,0,0.11
2014-7-10,94.5,82.0,71.1,73.3,69.9,67.3,95,68,47,29.95,29.84,0,0,0,0.00
2014-7-11,94.8,84.5,70.2,72.9,69.9,67.5,98,64,47,29.93,29.85,0,0,0,0.00
2014-7-12,96.8,86.7,74.1,74.4,71.2,68.8,90,62,47,29.93,29.82,0,0,0,0.00
2014-7-13,94.1,79.6,68.7,76.1,71.4,68.4,99,78,51,29.96,29.86,1,0,0,0.01
2014-7-14,91.0,79.2,73.0,79.7,74.6,69.7,99,86,65,30.01,29.91,1,0,0,0.03
2014-7-15,95.9,83.8,72.3,72.7,70.6,67.0,96,67,45,30.00,29.88,1,0,0,0.00
2014-7-16,95.5,84.3,72.1,73.6,69.9,65.7,98,64,47,29.97,29.85,2,0,0,0.00
2014-7-17,91.8,79.1,70.7,78.0,71.2,65.8,96,78,53,29.93,29.82,0,0,0,0.15
2014-7-18,96.1,82.8,71.6,72.6,68.3,65.5,87,64,45,29.92,29.80,0,0,0,0.00
2014-7-19,96.1,83.8,71.8,73.7,70.7,66.1,98,67,44,29.92,29.79,2,0,0,0.48
2014-7-20,92.8,79.9,72.0,73.5,70.6,67.0,91,75,50,29.93,29.78,2,0,0,0.01
2014-7-21,95.7,82.7,71.8,80.2,75.7,71.5,99,81,60,29.96,29.78,2,0,0,0.00
2014-7-22,93.6,81.1,73.8,80.6,75.4,71.0,95,84,60,29.98,29.88,1,0,0,0.05
2014-7-23,89.2,79.9,71.8,73.7,70.6,68.8,94,74,58,30.01,29.89,2,0,0,0.02
2014-7-24,93.2,81.0,70.9,75.4,70.5,67.4,94,72,51,29.99,29.87,0,0,0,0.01
2014-7-25,93.0,80.4,68.9,73.8,69.6,66.3,93,71,52,29.94,29.81,0,0,0,0.00
2014-7-26,97.7,86.5,71.1,75.5,72.3,67.6,97,65,46,29.90,29.77,1,0,0,0.00
2014-7-27,92.7,83.8,74.1,76.5,72.3,69.7,98,69,56,29.96,29.81,0,0,0,0.00
2014-7-28,96.3,86.1,74.8,75.0,71.6,68.3,83,64,48,29.95,29.88,2,0,0,0.00
2014-7-29,96.1,87.0,74.7,73.8,70.9,67.5,89,61,47,29.99,29.86,0,0,0,0.00
2014-7-30,97.5,86.1,74.7,73.0,68.7,65.6,76,58,43,29.98,29.85,2,0,0,0.00
2014-7-31,97.5,85.4,71.1,72.5,69.0,65.8,85,60,43,29.95,29.82,1,0,0,0.00
2014-8-1,95.2,85.0,73.6,71.9,70.4,68.2,88,63,46,29.95,29.79,1,0,0,0.00
2014-8-2,97.5,88.7,76.6,75.7,73.1,68.1,89,62,49,29.92,29.81,1,0,0,0.03
2014-8-3,100.0,84.2,76.6,72.7,69.8,68.0,78,64,40,29.94,29.81,0,0,0,0.00
2014-8-4,92.3,82.7,77.0,73.5,69.7,68.1,76,65,51,29.97,29.86,1,0,0,0.00
2014-8-5,95.0,81.5,75.2,68.9,67.2,65.4,77,63,43,29.99,29.85,1,0,0,0.00
2014-8-6,96.8,81.7,71.2,71.9,69.3,66.7,96,69,45,29.98,29.85,2,0,0,0.00
2014-8-7,93.2,80.9,71.4,75.0,71.2,68.2,92,74,49,29.93,29.80,4,1,0,0.10
2014-8-8,87.3,77.7,73.6,76.3,73.1,70.2,97,86,62,29.89,29.78,6,1,0,0.35
2014-8-9,87.3,79.6,72.7,78.1,74.8,71.8,99,86,67,29.93,29.81,3,0,0,0.00
2014-8-10,96.1,78.0,69.8,76.1,71.1,67.4,99,82,50,29.95,29.83,3,0,0,0.00
2014-8-11,91.0,81.6,68.4,75.7,72.2,67.8,99,75,56,29.98,29.86,2,0,0,0.00
2014-8-12,98.1,84.6,70.0,76.8,73.4,69.4,99,72,48,29.98,29.82,4,0,0,0.02
2014-8-13,96.3,85.3,70.0,74.8,71.2,69.0,99,66,45,29.92,29.81,4,1,0,0.00
2014-8-14,94.5,79.8,72.5,71.2,68.8,66.1,84,70,46,29.91,29.86,2,0,0,0.00
2014-8-15,92.8,82.1,71.1,72.7,69.4,66.8,97,67,51,29.92,29.83,3,1,0,0.01
2014-8-16,94.6,81.8,76.1,70.1,67.8,66.2,76,64,45,29.95,29.84,6,1,0,0.00
2014-8-17,83.3,77.6,75.7,76.1,70.4,66.8,87,78,72,29.97,29.93,2,0,0,0.00
2014-8-18,98.2,80.9,70.5,74.7,70.1,67.0,97,73,43,29.95,29.83,4,1,0,0.11
2014-8-19,94.1,82.2,69.4,76.4,70.5,68.0,99,70,50,29.92,29.77,4,1,0,0.02
2014-8-20,98.4,83.8,70.5,74.2,70.1,66.1,94,66,43,29.93,29.80,4,1,0,0.01
2014-8-21,93.6,79.9,70.0,77.3,73.0,69.4,98,81,56,29.96,29.85,2,1,0,0.04
2014-8-22,84.4,79.1,72.1,75.6,71.3,67.1,91,77,67,29.96,29.85,3,1,0,0.02
2014-8-23,96.1,79.7,70.7,71.9,69.4,67.0,88,73,44,29.91,29.80,3,1,0,0.00
2014-8-24,97.7,81.5,70.5,77.9,71.6,67.6,99,74,49,29.88,29.74,4,0,0,0.05
2014-8-25,95.4,81.0,70.7,76.8,73.1,69.8,98,80,51,29.87,29.75,2,0,0,0.18
2014-8-26,94.6,85.4,72.3,77.0,71.4,66.9,98,65,49,29.87,29.73,3,1,0,0.02
2014-8-27,95.0,82.2,70.2,72.0,69.0,65.7,90,66,44,29.85,29.72,4,1,0,0.00
2014-8-28,96.8,85.8,67.8,73.2,69.0,66.3,96,60,44,29.85,29.68,3,1,0,0.01
2014-8-29,100.6,86.1,68.9,72.1,68.9,66.3,93,59,39,29.85,29.73,5,1,0,0.00
2014-8-30,97.5,86.6,72.0,71.1,69.4,66.9,91,60,42,29.90,29.75,4,1,0,0.00
2014-8-31,91.9,78.2,69.4,71.5,69.2,67.0,92,76,49,29.94,29.80,2,0,0,0.00
2014-9-1,95.7,78.8,71.1,74.7,71.7,69.3,94,81,51,29.95,29.83,3,0,0,0.04
2014-9-2,100.2,87.5,69.8,75.2,71.5,68.3,95,62,43,29.95,29.78,4,1,0,0.00
2014-9-3,98.1,83.0,73.6,72.6,69.5,66.7,86,66,43,29.93,29.79,3,1,0,0.00
2014-9-4,98.1,80.4,69.1,74.1,70.0,67.9,97,74,44,29.90,29.76,3,1,0,0.01
2014-9-5,97.2,79.5,70.9,74.9,71.2,69.4,96,78,49,29.91,29.76,3,0,0,0.02
2014-9-6,98.1,79.5,70.7,74.8,71.3,69.1,97,80,43,29.90,29.75,3,1,0,0.05
2014-9-7,98.2,84.4,70.0,70.5,68.3,65.3,89,61,38,29.95,29.80,5,1,0,0.00
2014-9-8,98.8,83.0,72.0,71.5,68.9,66.6,86,65,40,29.95,29.81,4,1,0,0.00
2014-9-9,94.3,82.7,71.1,71.9,68.7,66.3,87,64,46,29.97,29.83,5,1,0,0.00
2014-9-10,98.8,82.4,70.2,74.0,70.1,66.8,94,69,43,29.96,29.82,5,1,0,0.09
2014-9-11,95.2,80.1,69.8,72.4,68.4,66.4,90,70,45,29.94,29.81,3,1,0,0.00
2014-9-12,98.1,82.7,68.5,73.4,70.1,67.3,97,69,42,29.93,29.77,4,1,0,0.00
2014-9-13,98.8,83.3,75.4,73.7,70.5,68.7,80,67,45,29.91,29.77,3,1,0,0.00
2014-9-14,93.7,83.4,72.1,73.4,70.6,65.9,93,68,47,29.89,29.77,4,1,0,0.02
2014-9-15,99.7,82.8,73.2,73.2,70.4,67.3,96,70,41,29.90,29.75,7,1,0,0.00
2014-9-16,98.2,84.1,72.7,73.6,70.9,68.9,89,67,44,29.91,29.76,6,1,0,0.00
2014-9-17,93.9,83.6,70.7,73.5,71.2,69.5,96,68,50,29.91,29.78,3,1,0,0.01
2014-9-18,86.5,76.9,71.4,74.2,70.7,68.3,90,82,67,29.90,29.77,5,1,0,0.00
2014-9-19,86.5,80.3,72.9,76.5,73.3,70.8,93,80,66,29.88,29.77,2,0,0,0.04
2014-9-20,94.8,86.5,69.4,75.9,72.8,67.9,95,65,49,29.90,29.77,3,0,0,0.00
2014-9-21,97.5,83.1,72.5,76.6,71.9,69.2,92,71,50,29.96,29.78,4,1,0,0.00
2014-9-22,99.7,87.0,73.0,73.3,70.7,68.6,86,60,43,29.98,29.85,6,1,0,0.00
2014-9-23,98.6,85.7,75.4,72.3,69.3,67.7,90,60,39,29.99,29.86,5,1,0,0.02
2014-9-24,90.3,80.4,73.6,72.9,69.9,67.0,90,72,54,29.99,29.88,3,1,0,0.02
2014-9-25,90.0,77.5,72.1,74.8,72.0,70.4,95,84,60,29.97,29.85,3,1,0,0.06
2014-9-26,88.7,76.1,72.9,74.7,72.5,71.3,96,89,63,29.94,29.82,4,0,0,0.09
2014-9-27,87.6,75.5,72.5,74.0,71.6,68.2,95,88,63,29.93,29.81,3,0,0,0.17
2014-9-28,92.1,79.8,72.0,76.7,71.2,68.2,93,76,61,29.89,29.80,4,1,0,0.00
2014-9-29,92.1,77.8,73.4,74.6,70.3,68.8,88,78,57,29.90,29.75,4,0,0,0.00
2014-9-30,95.0,83.1,72.3,74.9,72.7,70.2,95,73,50,29.90,29.75,4,1,0,0.06
2014-10-1,97.9,81.8,70.9,75.4,71.3,67.7,96,72,47,29.89,29.74,4,1,0,0.00
2014-10-2,97.7,82.6,70.5,73.7,70.1,67.2,90,68,46,29.91,29.76,4,1,0,0.00
2014-10-3,72.9,72.9,72.9,67.1,67.1,67.1,82,82,82,29.87,29.87,0,0,0,0.00
2014-11-1,90.0,82.2,71.6,73.7,69.5,65.7,86,67,53,30.00,29.88,4,2,0,0.00
2014-11-2,88.7,76.0,72.5,71.5,68.5,67.2,86,78,56,29.99,29.86,5,1,0,0.03
2014-11-3,82.6,76.0,71.8,71.8,70.0,68.4,89,82,70,29.96,29.91,3,1,0,0.00
2014-11-12,87.8,76.8,68.7,70.9,66.5,64.1,87,72,55,29.89,29.77,3,1,0,0.00